Time;durP1;ratioP1;P1;durP2;ratioP2;P2;SDS_P1;SDS_P2;PMS_P1;PMS_P2;Temp;Humidity;BMP_temperature;BMP_pressure;BME280_temperature;BME280_humidity;BME280_pressure;Samples;Min_cycle;Max_cycle;Signal;HPM_P1;HPM_P2
2022/03/16 00:00:58;;;;;;;0.50;0.50;;;7.70;99.90;;;;;;5075010;28;20439;-71
2022/03/16 00:03:45;;;;;;;0.40;0.40;;;7.60;99.90;;;;;;5075118;28;20474;-72
2022/03/16 00:06:32;;;;;;;0.50;0.50;;;7.60;99.90;;;;;;5075585;28;20505;-71
2022/03/16 00:09:19;;;;;;;0.40;0.40;;;7.50;99.90;;;;;;5075183;28;20435;-71
2022/03/16 00:12:06;;;;;;;0.50;0.50;;;7.40;99.90;;;;;;5075149;28;20928;-71
2022/03/16 00:14:54;;;;;;;0.50;0.50;;;7.30;99.90;;;;;;5075605;28;20815;-71
2022/03/16 00:17:41;;;;;;;0.50;0.50;;;7.20;99.90;;;;;;5075477;28;20427;-71
2022/03/16 00:20:28;;;;;;;0.50;0.50;;;7.20;99.90;;;;;;5075751;28;20462;-70
2022/03/16 00:23:16;;;;;;;0.50;0.50;;;7.10;99.90;;;;;;5076948;28;20426;-71
2022/03/16 00:26:03;;;;;;;0.40;0.40;;;7.10;99.90;;;;;;5073702;28;20459;-70
2022/03/16 00:28:50;;;;;;;0.50;0.50;;;7.10;99.90;;;;;;5073265;28;20434;-71
2022/03/16 00:31:38;;;;;;;0.50;0.50;;;7.00;99.90;;;;;;5073139;28;20431;-69
2022/03/16 00:34:25;;;;;;;0.40;0.40;;;6.90;99.90;;;;;;5073302;28;20458;-72
2022/03/16 00:37:12;;;;;;;0.50;0.50;;;6.90;99.90;;;;;;5073275;28;20431;-71
2022/03/16 00:39:59;;;;;;;0.40;0.40;;;6.80;99.90;;;;;;5073313;28;20454;-70
2022/03/16 00:42:46;;;;;;;0.40;0.40;;;6.80;99.90;;;;;;5073720;28;20420;-71
2022/03/16 00:45:33;;;;;;;0.40;0.40;;;6.70;99.90;;;;;;5072887;28;20867;-70
2022/03/16 00:48:21;;;;;;;0.40;0.40;;;6.70;99.90;;;;;;5073065;28;20447;-70
2022/03/16 00:51:11;;;;;;;0.40;0.40;;;6.60;99.90;;;;;;5073082;28;21128;-70
2022/03/16 00:53:58;;;;;;;0.50;0.50;;;6.50;99.90;;;;;;5073348;28;20489;-71
2022/03/16 00:56:45;;;;;;;0.40;0.40;;;6.50;99.90;;;;;;5073353;28;20427;-70
2022/03/16 00:59:32;;;;;;;0.40;0.40;;;6.40;99.90;;;;;;5073292;28;20978;-71
2022/03/16 01:02:19;;;;;;;0.50;0.50;;;6.30;99.90;;;;;;5073287;28;20800;-70
2022/03/16 01:05:08;;;;;;;0.50;0.50;;;6.30;99.90;;;;;;5073100;28;20471;-70
2022/03/16 01:07:55;;;;;;;0.50;0.50;;;6.30;99.90;;;;;;5072270;28;20423;-70
2022/03/16 01:10:42;;;;;;;0.50;0.50;;;6.20;99.90;;;;;;5074085;28;20446;-70
2022/03/16 01:13:29;;;;;;;0.50;0.50;;;6.10;99.90;;;;;;5072746;28;20434;-70
2022/03/16 01:16:16;;;;;;;0.50;0.50;;;6.10;99.90;;;;;;5073369;28;20779;-70
2022/03/16 01:19:03;;;;;;;0.50;0.50;;;6.10;99.90;;;;;;5073082;28;20435;-70
2022/03/16 01:21:52;;;;;;;0.50;0.50;;;6.00;99.90;;;;;;5072637;28;20477;-69
2022/03/16 01:24:39;;;;;;;0.50;0.50;;;5.90;99.90;;;;;;5073407;28;20470;-69
2022/03/16 01:27:26;;;;;;;0.43;0.43;;;5.90;99.90;;;;;;5074137;28;20855;-69
2022/03/16 01:30:14;;;;;;;0.50;0.50;;;5.90;99.90;;;;;;5073161;28;20419;-71
2022/03/16 01:33:01;;;;;;;0.50;0.50;;;5.80;99.90;;;;;;5072859;28;20424;-72
2022/03/16 01:35:48;;;;;;;0.50;0.50;;;5.90;99.90;;;;;;5074067;28;20947;-69
2022/03/16 01:38:37;;;;;;;0.47;0.47;;;5.70;99.90;;;;;;5073470;28;20428;-70
2022/03/16 01:41:24;;;;;;;0.50;0.50;;;5.70;99.90;;;;;;5073596;28;20424;-70
2022/03/16 01:44:11;;;;;;;0.50;0.50;;;5.60;99.90;;;;;;5072738;28;20478;-70
2022/03/16 01:46:58;;;;;;;0.90;0.90;;;5.70;99.90;;;;;;5072928;28;20997;-70
2022/03/16 01:49:46;;;;;;;0.50;0.50;;;5.50;99.90;;;;;;5073157;28;20419;-70
2022/03/16 01:52:33;;;;;;;0.40;0.40;;;5.70;99.90;;;;;;5072847;28;20427;-70
2022/03/16 01:55:22;;;;;;;0.40;0.40;;;5.50;99.90;;;;;;5073299;28;20944;-70
2022/03/16 01:58:10;;;;;;;0.50;0.50;;;5.50;99.90;;;;;;5073606;28;20798;-70
2022/03/16 02:00:57;;;;;;;0.50;0.50;;;5.40;99.90;;;;;;5073130;28;20431;-69
2022/03/16 02:03:44;;;;;;;0.50;0.50;;;5.50;99.90;;;;;;5072279;28;20451;-70
2022/03/16 02:06:31;;;;;;;0.50;0.50;;;5.40;99.90;;;;;;5072635;28;20420;-70
2022/03/16 02:09:18;;;;;;;0.40;0.40;;;5.40;99.90;;;;;;5080652;28;20432;-72
2022/03/16 02:12:11;;;;;;;0.47;0.47;;;5.40;99.90;;;;;;5076323;28;20431;-70
2022/03/16 02:14:58;;;;;;;0.50;0.50;;;5.30;99.90;;;;;;5076534;28;20447;-70
2022/03/16 02:17:46;;;;;;;13.60;8.10;;;5.40;99.90;;;;;;5076038;28;20419;-70
2022/03/16 02:20:33;;;;;;;0.50;0.50;;;5.30;99.90;;;;;;5075687;28;20443;-71
2022/03/16 02:23:21;;;;;;;0.50;0.50;;;5.30;99.90;;;;;;5078022;28;20435;-70
2022/03/16 02:26:08;;;;;;;0.50;0.50;;;5.20;99.90;;;;;;5078012;28;20467;-70
2022/03/16 02:28:55;;;;;;;0.50;0.50;;;5.20;99.90;;;;;;5076465;28;20428;-70
2022/03/16 02:31:42;;;;;;;0.50;0.50;;;5.20;99.90;;;;;;5076287;28;20435;-70
2022/03/16 02:34:29;;;;;;;0.50;0.50;;;5.10;99.90;;;;;;5076097;28;20947;-70
2022/03/16 02:37:16;;;;;;;0.50;0.50;;;5.10;99.90;;;;;;5075487;28;20940;-70
2022/03/16 02:40:06;;;;;;;0.50;0.50;;;5.10;99.90;;;;;;5076315;28;20423;-70
2022/03/16 02:42:53;;;;;;;0.50;0.50;;;5.00;99.90;;;;;;5076263;28;20444;-71
2022/03/16 02:45:40;;;;;;;0.50;0.50;;;4.90;99.90;;;;;;5076188;28;20478;-70
2022/03/16 02:48:27;;;;;;;0.50;0.50;;;4.90;99.90;;;;;;5076190;28;20424;-70
2022/03/16 02:51:14;;;;;;;0.50;0.50;;;4.80;99.90;;;;;;5076824;28;20424;-70
2022/03/16 02:54:01;;;;;;;0.50;0.50;;;4.80;99.90;;;;;;5076236;28;20443;-70
2022/03/16 02:56:49;;;;;;;0.50;0.50;;;4.90;99.90;;;;;;5075546;28;20808;-71
2022/03/16 02:59:36;;;;;;;0.40;0.40;;;4.70;99.90;;;;;;5076294;28;20841;-70
2022/03/16 03:02:23;;;;;;;0.50;0.50;;;4.60;99.90;;;;;;5076061;28;20420;-70
2022/03/16 03:05:10;;;;;;;0.50;0.50;;;4.60;99.90;;;;;;5076122;28;20529;-70
2022/03/16 03:07:57;;;;;;;0.70;0.70;;;4.60;99.90;;;;;;5075928;28;20435;-70
2022/03/16 03:10:44;;;;;;;0.53;0.53;;;4.50;99.90;;;;;;5074570;28;20516;-70
2022/03/16 03:13:33;;;;;;;0.50;0.50;;;4.60;99.90;;;;;;5074589;28;20423;-70
2022/03/16 03:16:19;;;;;;;0.70;0.70;;;4.50;99.90;;;;;;5075013;28;20424;-70
2022/03/16 03:19:06;;;;;;;1.27;1.17;;;4.50;99.90;;;;;;5075659;28;20431;-70
2022/03/16 03:21:53;;;;;;;1.80;1.70;;;4.40;99.90;;;;;;5074453;28;20485;-70
2022/03/16 03:24:44;;;;;;;0.50;0.50;;;4.40;99.90;;;;;;5074067;28;20459;-71
2022/03/16 03:27:32;;;;;;;0.50;0.50;;;4.40;99.90;;;;;;5074669;28;20946;-71
2022/03/16 03:30:20;;;;;;;0.50;0.50;;;4.40;99.90;;;;;;5074649;28;20428;-70
2022/03/16 03:33:07;;;;;;;0.73;0.73;;;4.50;99.90;;;;;;5075871;28;20425;-70
2022/03/16 03:35:54;;;;;;;0.60;0.60;;;4.40;99.90;;;;;;5076075;28;20418;-70
2022/03/16 03:38:41;;;;;;;0.60;0.60;;;4.40;99.90;;;;;;5075130;28;21005;-70
2022/03/16 03:41:28;;;;;;;0.90;0.90;;;4.30;99.90;;;;;;5074837;28;20506;-70
2022/03/16 03:44:15;;;;;;;0.50;0.50;;;4.20;99.90;;;;;;5075418;28;20443;-70
2022/03/16 03:47:04;;;;;;;0.50;0.50;;;4.30;99.90;;;;;;5075105;28;20457;-70
2022/03/16 03:49:51;;;;;;;0.50;0.50;;;4.20;99.90;;;;;;5075088;28;20455;-71
2022/03/16 03:52:38;;;;;;;0.50;0.50;;;4.10;99.90;;;;;;5075303;28;20427;-69
2022/03/16 03:55:25;;;;;;;0.50;0.50;;;4.20;99.90;;;;;;5075101;28;20448;-70
2022/03/16 03:58:12;;;;;;;0.50;0.50;;;4.10;99.90;;;;;;5075230;28;20427;-70
2022/03/16 04:00:59;;;;;;;0.50;0.50;;;4.10;99.90;;;;;;5074037;28;20489;-70
2022/03/16 04:03:47;;;;;;;0.50;0.50;;;4.00;99.90;;;;;;5074367;28;20484;-70
2022/03/16 04:06:34;;;;;;;0.50;0.50;;;4.00;99.90;;;;;;5074672;28;20467;-70
2022/03/16 04:09:21;;;;;;;0.50;0.50;;;4.00;99.90;;;;;;5074052;28;20454;-69
2022/03/16 04:12:09;;;;;;;0.60;0.60;;;4.10;99.90;;;;;;5073903;28;20423;-69
2022/03/16 04:14:56;;;;;;;0.50;0.50;;;3.90;99.90;;;;;;5073291;28;20440;-70
2022/03/16 04:17:43;;;;;;;0.50;0.50;;;3.90;99.90;;;;;;5074758;28;20419;-69
2022/03/16 04:20:31;;;;;;;0.50;0.50;;;3.70;99.90;;;;;;5073928;28;20428;-70
2022/03/16 04:23:18;;;;;;;0.50;0.50;;;3.80;99.90;;;;;;5074156;28;20423;-70
2022/03/16 04:26:05;;;;;;;0.47;0.47;;;3.70;99.90;;;;;;5074276;28;20993;-69
2022/03/16 04:28:52;;;;;;;0.50;0.50;;;3.70;99.90;;;;;;5073739;28;20427;-71
2022/03/16 04:31:39;;;;;;;3.43;3.13;;;3.70;99.90;;;;;;5073695;28;20428;-70
2022/03/16 04:34:26;;;;;;;0.40;0.40;;;3.70;99.90;;;;;;5073547;28;20455;-69
2022/03/16 04:37:14;;;;;;;0.50;0.50;;;3.60;99.90;;;;;;5074655;28;20439;-70
2022/03/16 04:40:02;;;;;;;0.50;0.50;;;3.60;99.90;;;;;;5074467;28;20478;-70
2022/03/16 04:42:49;;;;;;;0.50;0.50;;;3.60;99.90;;;;;;5074296;28;20454;-70
2022/03/16 04:45:38;;;;;;;0.50;0.50;;;3.60;99.90;;;;;;5072992;28;20522;-69
2022/03/16 04:48:26;;;;;;;0.50;0.50;;;3.60;99.90;;;;;;5073803;28;20419;-70
2022/03/16 04:51:13;;;;;;;0.50;0.50;;;3.60;99.90;;;;;;5073804;28;20431;-70
2022/03/16 04:54:01;;;;;;;0.40;0.40;;;3.70;99.90;;;;;;5073531;28;20436;-71
2022/03/16 04:56:48;;;;;;;0.50;0.50;;;3.80;99.90;;;;;;5073957;28;20464;-71
2022/03/16 04:59:35;;;;;;;0.40;0.40;;;3.70;99.90;;;;;;5075210;28;20443;-69
2022/03/16 05:02:22;;;;;;;0.50;0.50;;;3.70;99.90;;;;;;5073813;28;20423;-70
2022/03/16 05:05:10;;;;;;;1.43;1.43;;;3.70;99.90;;;;;;5074311;28;20475;-70
2022/03/16 05:07:57;;;;;;;0.47;0.47;;;3.70;99.90;;;;;;5072964;28;20428;-70
2022/03/16 05:10:46;;;;;;;0.50;0.50;;;3.60;99.90;;;;;;5073064;28;20813;-70
2022/03/16 05:13:33;;;;;;;0.50;0.50;;;3.60;99.90;;;;;;5093307;28;20482;-73
2022/03/16 05:16:20;;;;;;;0.50;0.50;;;3.50;99.90;;;;;;5092833;28;20446;-71
2022/03/16 05:19:07;;;;;;;0.50;0.50;;;3.40;99.90;;;;;;5092520;28;20435;-71
2022/03/16 05:21:53;;;;;;;0.40;0.40;;;3.40;99.90;;;;;;5092586;28;21028;-70
2022/03/16 05:24:40;;;;;;;2.60;2.50;;;3.40;99.90;;;;;;5089510;28;20478;-70
2022/03/16 05:27:29;;;;;;;0.47;0.47;;;3.40;99.90;;;;;;5074906;28;20894;-69
2022/03/16 05:30:16;;;;;;;0.50;0.50;;;3.40;99.90;;;;;;5075315;28;21001;-69
2022/03/16 05:33:03;;;;;;;0.50;0.50;;;3.40;99.90;;;;;;5072904;28;20427;-69
2022/03/16 05:35:50;;;;;;;0.50;0.50;;;3.30;99.90;;;;;;5074200;28;20412;-69
2022/03/16 05:38:37;;;;;;;0.50;0.50;;;3.30;99.90;;;;;;5072924;28;20438;-70
2022/03/16 05:41:25;;;;;;;0.50;0.50;;;3.30;99.90;;;;;;5076380;28;20427;-69
2022/03/16 05:44:13;;;;;;;0.50;0.50;;;3.30;99.90;;;;;;5074024;28;20533;-70
2022/03/16 05:47:00;;;;;;;0.40;0.40;;;3.40;99.90;;;;;;5073332;28;20471;-69
2022/03/16 05:49:47;;;;;;;0.40;0.40;;;3.40;99.90;;;;;;5074294;28;20427;-70
2022/03/16 05:52:34;;;;;;;0.50;0.50;;;3.60;99.90;;;;;;5074066;28;20452;-70
2022/03/16 05:55:20;;;;;;;0.50;0.50;;;3.60;99.90;;;;;;5073300;28;20444;-70
2022/03/16 05:58:07;;;;;;;0.50;0.50;;;3.60;99.90;;;;;;5074633;28;20439;-70
2022/03/16 06:00:56;;;;;;;0.47;0.47;;;3.60;99.90;;;;;;5074494;28;20431;-70
2022/03/16 06:03:43;;;;;;;0.50;0.50;;;3.60;99.90;;;;;;5087345;28;20463;-70
2022/03/16 06:06:31;;;;;;;0.50;0.50;;;3.70;99.90;;;;;;5088682;28;20452;-71
2022/03/16 06:09:17;;;;;;;0.40;0.40;;;3.80;99.90;;;;;;5089842;28;20495;-71
2022/03/16 06:12:05;;;;;;;0.50;0.50;;;3.70;99.90;;;;;;5091467;28;20435;-71
2022/03/16 06:14:53;;;;;;;0.50;0.50;;;3.70;99.90;;;;;;5091325;28;20456;-70
2022/03/16 06:17:41;;;;;;;0.40;0.40;;;3.80;99.90;;;;;;5092579;28;20430;-70
2022/03/16 06:20:29;;;;;;;0.50;0.50;;;3.80;99.90;;;;;;5092892;28;20412;-71
2022/03/16 06:23:16;;;;;;;0.50;0.50;;;3.90;99.90;;;;;;5091054;28;20427;-70
2022/03/16 06:26:05;;;;;;;0.50;0.50;;;4.00;99.90;;;;;;5091916;28;20463;-70
2022/03/16 06:28:51;;;;;;;0.50;0.50;;;4.10;99.90;;;;;;5091480;28;20458;-70
2022/03/16 06:31:38;;;;;;;0.50;0.50;;;4.20;99.90;;;;;;5090495;28;20428;-69
2022/03/16 06:34:27;;;;;;;0.50;0.50;;;4.20;99.90;;;;;;5076623;28;20452;-69
2022/03/16 06:37:14;;;;;;;0.50;0.50;;;4.50;99.90;;;;;;5075475;28;20423;-69
2022/03/16 06:40:01;;;;;;;0.50;0.50;;;4.50;99.90;;;;;;5075313;28;20430;-69
2022/03/16 06:42:50;;;;;;;0.50;0.50;;;4.60;99.90;;;;;;5073675;28;20762;-69
2022/03/16 06:45:37;;;;;;;0.50;0.50;;;4.70;99.90;;;;;;5071099;28;20563;-69
2022/03/16 06:48:24;;;;;;;0.50;0.50;;;4.80;99.90;;;;;;5071145;28;20446;-70
2022/03/16 06:51:13;;;;;;;0.50;0.50;;;4.80;99.90;;;;;;5074205;28;20423;-70
2022/03/16 06:54:00;;;;;;;0.50;0.50;;;4.90;99.90;;;;;;5073302;28;20447;-70
2022/03/16 06:56:46;;;;;;;0.50;0.50;;;5.00;99.90;;;;;;5076277;28;20427;-70
2022/03/16 06:59:33;;;;;;;0.50;0.50;;;5.10;99.90;;;;;;5077873;28;20951;-70
2022/03/16 07:02:20;;;;;;;0.50;0.50;;;5.20;99.90;;;;;;5069138;28;20478;-70
2022/03/16 07:05:10;;;;;;;0.50;0.50;;;5.20;99.90;;;;;;5072516;28;20805;-70
2022/03/16 07:08:00;;;;;;;0.50;0.50;;;5.40;99.90;;;;;;5077215;28;20948;-70
2022/03/16 07:10:47;;;;;;;3.17;2.97;;;5.40;99.90;;;;;;5077222;28;20415;-70
2022/03/16 07:13:34;;;;;;;0.50;0.50;;;5.40;99.90;;;;;;5078845;28;20481;-71
2022/03/16 07:16:21;;;;;;;0.50;0.50;;;5.50;99.90;;;;;;5072372;28;21147;-71
2022/03/16 07:19:09;;;;;;;0.50;0.50;;;5.60;99.90;;;;;;5073635;28;20427;-70
2022/03/16 07:21:58;;;;;;;0.50;0.50;;;5.70;99.90;;;;;;5062159;28;20455;-69
2022/03/16 07:24:46;;;;;;;0.50;0.50;;;5.70;99.90;;;;;;5070392;28;20451;-70
2022/03/16 07:27:33;;;;;;;2.20;2.10;;;5.90;99.90;;;;;;5059610;28;20471;-70
2022/03/16 07:30:20;;;;;;;0.50;0.50;;;5.90;99.90;;;;;;5071794;28;20423;-70
2022/03/16 07:33:08;;;;;;;0.50;0.50;;;6.00;99.90;;;;;;5063645;28;20432;-68
2022/03/16 07:35:55;;;;;;;0.50;0.50;;;6.00;99.90;;;;;;5055836;28;20425;-70
2022/03/16 07:38:42;;;;;;;0.50;0.50;;;6.20;99.90;;;;;;5055184;28;20443;-72
2022/03/16 07:41:30;;;;;;;0.50;0.50;;;6.30;99.90;;;;;;5054543;28;20519;-69
2022/03/16 07:44:18;;;;;;;2.83;2.73;;;6.40;99.90;;;;;;5055015;28;20440;-70
2022/03/16 07:47:07;;;;;;;0.43;0.43;;;6.50;99.90;;;;;;5063655;28;20478;-70
2022/03/16 07:49:56;;;;;;;0.50;0.50;;;6.60;99.90;;;;;;5074444;28;20428;-70
2022/03/16 07:52:43;;;;;;;0.40;0.40;;;6.70;99.90;;;;;;5074974;28;20431;-70
2022/03/16 07:55:30;;;;;;;2.10;2.00;;;6.80;99.90;;;;;;5074868;28;20856;-70
2022/03/16 07:58:19;;;;;;;0.40;0.40;;;6.90;99.90;;;;;;5055202;28;20413;-70
2022/03/16 08:01:06;;;;;;;0.50;0.50;;;7.00;99.90;;;;;;5054200;28;20830;-70
2022/03/16 08:03:52;;;;;;;1.17;1.17;;;7.10;99.90;;;;;;5053758;28;20440;-70
2022/03/16 08:06:39;;;;;;;0.50;0.50;;;7.30;99.90;;;;;;5061298;28;20479;-70
2022/03/16 08:09:26;;;;;;;0.60;0.60;;;7.40;99.90;;;;;;5074046;28;20432;-69
2022/03/16 08:12:13;;;;;;;0.40;0.40;;;7.80;99.90;;;;;;5073326;28;20435;-70
2022/03/16 08:15:02;;;;;;;0.50;0.50;;;7.60;99.90;;;;;;5074626;28;20443;-70
2022/03/16 08:17:50;;;;;;;0.40;0.40;;;7.70;99.90;;;;;;5070511;28;20848;-69
2022/03/16 08:20:40;;;;;;;0.50;0.50;;;7.80;99.90;;;;;;5055990;28;20425;-70
2022/03/16 08:23:27;;;;;;;0.50;0.50;;;7.90;99.90;;;;;;5071390;28;20561;-70
2022/03/16 08:26:14;;;;;;;0.50;0.50;;;8.00;99.90;;;;;;5074453;28;20475;-70
2022/03/16 08:29:01;;;;;;;0.43;0.43;;;8.20;99.90;;;;;;5073885;28;20506;-70
2022/03/16 08:31:49;;;;;;;0.50;0.50;;;8.30;99.90;;;;;;5074452;28;20431;-71
2022/03/16 08:34:36;;;;;;;1.43;1.43;;;8.50;99.90;;;;;;5073836;28;20475;-70
2022/03/16 08:37:24;;;;;;;0.50;0.50;;;8.70;99.90;;;;;;5073049;28;20472;-69
2022/03/16 08:40:15;;;;;;;0.50;0.50;;;8.60;99.90;;;;;;5072723;28;20427;-69
2022/03/16 08:43:03;;;;;;;0.70;0.70;;;8.70;99.90;;;;;;5056074;28;20455;-69
2022/03/16 08:45:51;;;;;;;0.50;0.50;;;8.80;99.90;;;;;;5073102;28;21169;-70
2022/03/16 08:48:39;;;;;;;0.50;0.50;;;8.90;99.90;;;;;;5069854;28;20798;-69
2022/03/16 08:51:26;;;;;;;0.50;0.50;;;9.10;99.90;;;;;;5072490;28;20423;-69
2022/03/16 08:54:13;;;;;;;0.40;0.40;;;9.10;99.90;;;;;;5071243;28;20456;-70
2022/03/16 08:57:00;;;;;;;0.50;0.50;;;9.20;99.90;;;;;;5072932;28;20517;-70
2022/03/16 08:59:47;;;;;;;0.47;0.47;;;9.20;99.90;;;;;;5072067;28;20924;-71
2022/03/16 09:02:34;;;;;;;0.50;0.50;;;9.30;99.90;;;;;;5071798;28;20435;-70
2022/03/16 09:05:23;;;;;;;0.50;0.50;;;9.30;99.90;;;;;;5072727;28;20467;-72
2022/03/16 09:08:10;;;;;;;0.50;0.50;;;9.30;99.90;;;;;;5072255;28;20604;-72
2022/03/16 09:10:58;;;;;;;0.50;0.50;;;9.30;99.90;;;;;;5072232;28;20511;-70
2022/03/16 09:13:44;;;;;;;0.83;0.83;;;9.50;99.90;;;;;;5072008;28;20444;-70
2022/03/16 09:16:31;;;;;;;0.50;0.50;;;9.60;99.90;;;;;;5071833;28;20419;-71
2022/03/16 09:19:21;;;;;;;0.50;0.50;;;9.60;99.90;;;;;;5063354;28;20447;-73
2022/03/16 09:22:09;;;;;;;0.40;0.40;;;9.70;99.90;;;;;;5072785;28;20457;-70
2022/03/16 09:24:57;;;;;;;0.40;0.40;;;9.80;99.90;;;;;;5054548;28;20452;-71
2022/03/16 09:27:44;;;;;;;0.90;0.90;;;9.90;99.90;;;;;;5053236;28;20468;-69
2022/03/16 09:30:31;;;;;;;0.40;0.40;;;9.90;99.90;;;;;;5052854;28;20944;-70
2022/03/16 09:33:18;;;;;;;0.50;0.50;;;10.00;99.90;;;;;;5052520;28;20802;-69
2022/03/16 09:36:08;;;;;;;0.47;0.47;;;10.00;99.90;;;;;;5054562;28;20983;-70
2022/03/16 09:38:56;;;;;;;0.40;0.40;;;10.10;99.90;;;;;;5071645;28;20539;-70
2022/03/16 09:41:44;;;;;;;0.50;0.50;;;10.10;99.90;;;;;;5071603;28;20432;-70
2022/03/16 09:44:31;;;;;;;0.40;0.40;;;10.10;99.90;;;;;;5071993;28;20879;-69
2022/03/16 09:47:19;;;;;;;0.50;0.50;;;10.20;99.90;;;;;;5071898;28;20486;-71
2022/03/16 09:50:07;;;;;;;0.40;0.40;;;10.20;99.90;;;;;;5050949;28;20490;-70
2022/03/16 09:52:55;;;;;;;0.50;0.50;;;10.20;99.90;;;;;;5051899;28;20451;-70
2022/03/16 09:55:44;;;;;;;0.50;0.50;;;10.20;99.90;;;;;;5070526;28;20924;-71
2022/03/16 09:58:31;;;;;;;0.50;0.50;;;10.20;99.90;;;;;;5072384;28;20488;-71
2022/03/16 10:01:19;;;;;;;0.50;0.50;;;10.20;99.90;;;;;;5071333;28;20502;-69
2022/03/16 10:04:08;;;;;;;0.50;0.50;;;10.30;99.90;;;;;;5071568;28;20444;-69
2022/03/16 10:06:55;;;;;;;0.50;0.50;;;10.40;99.90;;;;;;5071297;28;20463;-70
2022/03/16 10:16:10;;;;;;;0.50;0.50;;;10.40;99.90;;;;;;5052508;28;20431;-70
2022/03/16 10:18:58;;;;;;;0.70;0.70;;;10.50;99.90;;;;;;5056123;28;20431;-70
2022/03/16 10:21:58;;;;;;;0.50;0.50;;;10.60;99.90;;;;;;5070043;28;20928;-72
2022/03/16 10:24:45;;;;;;;0.40;0.40;;;10.80;99.90;;;;;;5070098;28;20456;-69
2022/03/16 10:27:36;;;;;;;0.40;0.40;;;10.70;99.90;;;;;;5070225;28;20462;-70
2022/03/16 10:30:28;;;;;;;0.50;0.50;;;10.80;99.90;;;;;;5072523;28;20419;-70
2022/03/16 10:33:16;;;;;;;0.80;0.80;;;10.90;99.90;;;;;;5074951;28;20959;-70
2022/03/16 10:36:06;;;;;;;0.70;0.70;;;10.80;99.90;;;;;;5074556;28;20438;-70
2022/03/16 10:38:54;;;;;;;4.63;1.67;;;10.80;99.90;;;;;;5074684;28;20447;-72
2022/03/16 10:48:20;;;;;;;0.50;0.50;;;10.80;99.90;;;;;;5074326;28;20471;-72
2022/03/16 10:51:08;;;;;;;0.50;0.50;;;10.80;99.90;;;;;;5074067;28;20423;-72
2022/03/16 10:53:56;;;;;;;0.50;0.50;;;10.90;99.90;;;;;;5073255;28;20476;-71
2022/03/16 10:56:45;;;;;;;0.50;0.50;;;11.00;99.90;;;;;;5066019;28;20484;-70
2022/03/16 10:59:33;;;;;;;0.40;0.40;;;11.00;99.90;;;;;;5073929;28;20501;-70
2022/03/16 11:02:27;;;;;;;0.50;0.50;;;11.00;99.90;;;;;;5072895;28;20493;-70
2022/03/16 11:05:18;;;;;;;0.40;0.40;;;11.10;99.90;;;;;;5075659;28;20458;-69
2022/03/16 11:08:07;;;;;;;0.40;0.40;;;11.20;99.90;;;;;;5074215;28;20550;-71
2022/03/16 11:10:54;;;;;;;0.40;0.40;;;11.20;99.90;;;;;;5073998;28;20428;-71
2022/03/16 11:13:40;;;;;;;0.50;0.50;;;11.30;99.90;;;;;;5074719;28;20975;-70
2022/03/16 11:16:27;;;;;;;0.40;0.40;;;11.30;99.90;;;;;;5074319;28;20932;-72
2022/03/16 11:19:18;;;;;;;0.40;0.40;;;11.50;99.90;;;;;;5066675;28;20444;-69
2022/03/16 11:22:10;;;;;;;1.73;1.43;;;11.50;99.90;;;;;;5068201;28;20432;-70
2022/03/16 11:25:00;;;;;;;0.40;0.40;;;11.50;99.90;;;;;;5074912;28;20446;-70
2022/03/16 11:27:49;;;;;;;0.40;0.40;;;11.50;99.90;;;;;;5074331;28;20471;-69
2022/03/16 11:30:37;;;;;;;0.70;0.70;;;11.60;99.90;;;;;;5074024;28;20584;-70
2022/03/16 11:33:26;;;;;;;0.47;0.47;;;11.60;99.90;;;;;;5073196;28;20435;-73
2022/03/16 11:36:34;;;;;;;0.40;0.40;;;11.60;99.90;;;;;;5070797;28;20424;-69
2022/03/16 11:39:25;;;;;;;0.70;0.63;;;11.50;99.90;;;;;;5073842;28;20427;-70
2022/03/16 11:42:16;;;;;;;0.60;0.60;;;11.50;99.90;;;;;;5073304;28;20427;-69
2022/03/16 11:45:35;;;;;;;0.50;0.50;;;11.50;99.90;;;;;;5073380;28;20478;-70
2022/03/16 11:48:55;;;;;;;0.40;0.40;;;11.50;99.90;;;;;;5073657;28;20479;-70
2022/03/16 11:51:57;;;;;;;0.50;0.50;;;11.70;99.90;;;;;;5073292;28;20438;-70
2022/03/16 11:54:48;;;;;;;0.40;0.40;;;11.60;99.90;;;;;;5072162;28;20454;-69
2022/03/16 11:57:37;;;;;;;0.40;0.40;;;11.60;99.90;;;;;;5072405;28;20428;-68
2022/03/16 12:00:24;;;;;;;0.40;0.40;;;11.60;99.90;;;;;;5072900;28;20423;-71
2022/03/16 12:03:21;;;;;;;1.13;1.03;;;11.70;99.90;;;;;;5072198;28;20438;-71
2022/03/16 12:06:08;;;;;;;0.40;0.40;;;11.60;99.90;;;;;;5072425;28;20432;-70
2022/03/16 12:08:58;;;;;;;0.40;0.40;;;11.60;99.90;;;;;;5071916;28;20467;-69
2022/03/16 12:15:33;;;;;;;0.40;0.40;;;11.80;99.90;;;;;;5071973;28;20440;-69
2022/03/16 12:18:26;;;;;;;0.60;0.60;;;11.90;99.90;;;;;;5062244;28;20427;-70
2022/03/16 12:21:14;;;;;;;0.40;0.40;;;11.90;99.90;;;;;;5073814;28;20502;-70
2022/03/16 12:30:16;;;;;;;0.47;0.47;;;12.00;99.90;;;;;;5069583;28;20885;-71
2022/03/16 12:33:05;;;;;;;0.60;0.50;;;12.00;99.90;;;;;;5073194;28;20442;-71
2022/03/16 12:35:54;;;;;;;0.40;0.40;;;12.10;99.90;;;;;;5073393;28;20497;-71
2022/03/16 12:38:43;;;;;;;0.50;0.50;;;12.00;99.90;;;;;;5071859;28;20416;-70
2022/03/16 12:44:42;;;;;;;0.40;0.40;;;12.30;99.90;;;;;;5071460;28;20447;-73
2022/03/16 12:47:32;;;;;;;3.97;1.27;;;12.40;99.90;;;;;;5070542;28;20509;-72
2022/03/16 12:50:21;;;;;;;0.53;0.53;;;12.40;99.90;;;;;;5062242;28;20454;-73
2022/03/16 12:53:08;;;;;;;0.40;0.40;;;12.50;99.90;;;;;;5066034;28;20499;-69
2022/03/16 12:55:55;;;;;;;0.50;0.50;;;12.70;99.90;;;;;;5068766;28;21171;-72
2022/03/16 12:58:43;;;;;;;0.60;0.60;;;12.80;99.90;;;;;;5072046;28;20818;-70
2022/03/16 13:01:30;;;;;;;0.50;0.50;;;12.90;99.90;;;;;;5072928;28;20470;-70
2022/03/16 13:04:19;;;;;;;0.40;0.40;;;13.00;99.90;;;;;;5072540;28;20525;-70
2022/03/16 13:07:08;;;;;;;0.40;0.40;;;13.10;99.90;;;;;;5072008;28;20438;-71
2022/03/16 13:09:55;;;;;;;0.50;0.50;;;13.30;99.90;;;;;;5072996;28;20948;-70
2022/03/16 13:12:56;;;;;;;0.47;0.47;;;13.40;99.90;;;;;;5071681;28;20835;-70
2022/03/16 13:15:44;;;;;;;0.40;0.40;;;13.60;99.90;;;;;;5072044;28;20440;-69
2022/03/16 13:18:31;;;;;;;0.47;0.47;;;14.10;99.90;;;;;;5071094;28;20419;-71
2022/03/16 13:21:23;;;;;;;0.40;0.40;;;14.40;99.90;;;;;;5069972;28;20431;-73
2022/03/16 13:24:12;;;;;;;0.77;0.77;;;14.80;99.90;;;;;;5079407;22;20495;-66
2022/03/16 13:27:00;;;;;;;0.40;0.40;;;15.10;99.90;;;;;;5057649;28;20531;-67
2022/03/16 13:29:49;;;;;;;0.40;0.40;;;15.70;99.90;;;;;;5061518;28;20467;-66
2022/03/16 13:32:38;;;;;;;6.63;1.53;;;16.30;99.90;;;;;;5062418;28;20213;-67
2022/03/16 13:35:28;;;;;;;0.40;0.40;;;17.00;99.90;;;;;;5065545;28;20205;-68
2022/03/16 13:38:15;;;;;;;0.60;0.60;;;17.80;99.90;;;;;;5061649;28;20273;-66
2022/03/16 13:41:12;;;;;;;0.40;0.40;;;18.70;99.90;;;;;;5060308;28;20206;-66
2022/03/16 13:44:03;;;;;;;0.40;0.40;;;19.80;99.90;;;;;;5058905;28;20279;-67
2022/03/16 13:46:50;;;;;;;0.40;0.40;;;20.60;99.90;;;;;;5059792;28;20250;-67
2022/03/16 13:49:38;;;;;;;0.50;0.50;;;20.60;99.90;;;;;;5057834;28;20580;-66
2022/03/16 13:52:27;;;;;;;0.40;0.40;;;21.30;98.50;;;;;;5058582;28;20237;-66
2022/03/16 13:55:16;;;;;;;0.43;0.43;;;21.90;95.50;;;;;;5057612;28;20193;-67
2022/03/16 13:58:12;;;;;;;0.45;0.45;;;22.70;92.90;;;;;;5062829;28;20633;-67
2022/03/16 14:01:00;;;;;;;0.40;0.40;;;23.50;90.00;;;;;;5054937;28;20206;-67
2022/03/16 14:03:48;;;;;;;0.40;0.40;;;23.90;86.60;;;;;;5069709;28;20217;-68
2022/03/16 14:06:38;;;;;;;1.73;1.63;;;24.10;82.60;;;;;;5074953;28;20201;-67
2022/03/16 14:09:25;;;;;;;0.60;0.60;;;24.10;80.50;;;;;;5074347;28;20237;-68
2022/03/16 14:12:15;;;;;;;0.40;0.40;;;24.00;78.30;;;;;;5075497;28;20194;-67
2022/03/16 14:15:10;;;;;;;0.40;0.40;;;23.20;77.90;;;;;;5075314;28;20207;-68
2022/03/16 14:18:08;;;;;;;0.45;0.45;;;22.80;77.20;;;;;;5069859;28;20229;-67
2022/03/16 14:20:56;;;;;;;0.40;0.40;;;22.50;77.60;;;;;;5063868;28;20213;-67
2022/03/16 14:23:43;;;;;;;0.40;0.40;;;22.30;78.80;;;;;;5056389;28;20628;-67
2022/03/16 14:26:30;;;;;;;0.45;0.45;;;22.20;79.50;;;;;;5057776;28;20213;-67
2022/03/16 14:29:17;;;;;;;0.40;0.40;;;22.40;77.10;;;;;;5059303;28;20710;-66
2022/03/16 14:32:06;;;;;;;0.40;0.40;;;22.50;75.50;;;;;;5058357;28;20205;-67
2022/03/16 14:34:53;;;;;;;0.40;0.40;;;22.60;73.80;;;;;;5058797;28;20217;-67
2022/03/16 14:37:40;;;;;;;0.40;0.40;;;22.70;71.20;;;;;;5061276;28;20780;-66
2022/03/16 14:40:27;;;;;;;0.43;0.43;;;23.10;70.20;;;;;;5041579;28;20198;-67
2022/03/16 14:43:14;;;;;;;1.52;1.25;;;23.40;67.20;;;;;;5040229;28;20218;-67
2022/03/16 14:46:01;;;;;;;1.08;1.02;;;24.00;68.40;;;;;;5040521;28;20198;-67
2022/03/16 14:48:49;;;;;;;2.05;1.80;;;24.20;66.80;;;;;;5035081;28;20219;-67
2022/03/16 14:51:36;;;;;;;0.40;0.40;;;23.60;65.90;;;;;;5040537;28;20199;-67
2022/03/16 14:54:23;;;;;;;0.40;0.40;;;23.10;66.50;;;;;;5038425;28;20230;-67
2022/03/16 14:57:10;;;;;;;0.40;0.40;;;22.80;67.30;;;;;;5038258;28;20214;-67
2022/03/16 14:59:57;;;;;;;0.40;0.40;;;22.60;67.80;;;;;;5039262;28;20704;-67
2022/03/16 15:02:44;;;;;;;1.27;1.27;;;22.40;66.20;;;;;;5039266;28;20206;-67
2022/03/16 15:05:32;;;;;;;0.65;0.63;;;22.10;65.10;;;;;;5039190;28;20198;-67
2022/03/16 15:08:19;;;;;;;0.40;0.40;;;21.40;65.10;;;;;;5039414;28;20273;-67